createdAt,value
2018-12-16T00:01:34.160Z,98959.13
2018-12-16T00:04:02.855Z,98958.02
2018-12-16T00:06:32.878Z,98947.98
2018-12-16T00:09:01.589Z,98941.59
2018-12-16T00:11:30.121Z,98940.75
2018-12-16T00:13:58.704Z,98934.48
2018-12-16T00:16:27.317Z,98928.71
2018-12-16T00:18:55.927Z,98928.99
2018-12-16T00:21:24.542Z,98910.61
2018-12-16T00:23:53.029Z,98903.95
2018-12-16T00:26:21.483Z,98897.22
2018-12-16T00:28:50.806Z,98893.83
2018-12-16T00:31:19.917Z,98896.73
2018-12-16T00:33:48.455Z,98898.58
2018-12-16T00:36:17.147Z,98895.12
2018-12-16T00:38:45.837Z,98893.03
2018-12-16T00:41:15.040Z,98884.44
2018-12-16T00:43:43.600Z,98846.39
2018-12-16T00:46:12.173Z,98896.89
2018-12-16T00:48:41.219Z,98888.96
2018-12-16T00:51:09.875Z,98899.76
2018-12-16T00:53:38.480Z,98897.40
2018-12-16T00:56:07.021Z,98904.83
2018-12-16T00:58:35.732Z,98910.40
2018-12-16T01:01:04.247Z,98909.39
2018-12-16T01:03:32.745Z,98911.49
2018-12-16T01:06:01.386Z,98912.34
2018-12-16T01:08:29.954Z,98909.55
2018-12-16T01:10:59.536Z,98903.80
2018-12-16T01:13:28.084Z,98908.80
2018-12-16T01:15:56.664Z,98897.83
2018-12-16T01:18:26.277Z,98898.64
2018-12-16T01:20:54.802Z,98902.91
2018-12-16T01:23:23.637Z,98898.95
2018-12-16T01:25:52.161Z,98892.02
2018-12-16T01:28:21.348Z,98895.75
2018-12-16T01:30:50.538Z,98897.66
2018-12-16T01:33:19.572Z,98899.92
2018-12-16T01:35:48.122Z,98897.73
2018-12-16T01:38:17.468Z,98886.97
2018-12-16T01:40:47.538Z,98888.70
2018-12-16T01:43:16.045Z,98891.31
2018-12-16T01:45:44.614Z,98879.78
2018-12-16T01:48:13.774Z,98879.41
2018-12-16T01:50:43.071Z,98878.59
2018-12-16T01:53:11.511Z,98879.48
2018-12-16T01:55:40.646Z,98875.80
2018-12-16T01:58:09.199Z,98869.73
2018-12-16T02:00:38.443Z,98858.62
2018-12-16T02:03:07.110Z,98861.84
2018-12-16T02:05:35.721Z,98848.80
2018-12-16T02:08:04.263Z,98844.52
2018-12-16T02:10:32.766Z,98838.54
2018-12-16T02:13:02.085Z,98832.64
2018-12-16T02:15:30.569Z,98823.82
2018-12-16T02:17:59.722Z,98813.98
2018-12-16T02:20:28.314Z,98801.50
2018-12-16T02:22:57.220Z,98791.63
2018-12-16T02:25:25.835Z,98785.72
2018-12-16T02:27:55.009Z,98779.64
2018-12-16T02:30:28.655Z,98781.64
2018-12-16T02:32:57.500Z,98777.73
2018-12-16T02:35:25.999Z,98776.30
2018-12-16T02:37:55.706Z,98764.16
2018-12-16T02:40:25.083Z,98760.04
2018-12-16T02:42:53.621Z,98755.52
2018-12-16T02:45:23.755Z,98755.52
2018-12-16T02:47:52.727Z,98744.33
2018-12-16T02:50:22.080Z,98736.57
2018-12-16T02:52:50.719Z,98726.28
2018-12-16T02:55:19.832Z,98715.13
2018-12-16T02:57:48.438Z,98708.06
2018-12-16T03:00:17.658Z,98696.84
2018-12-16T03:02:46.180Z,98688.14
2018-12-16T03:05:15.859Z,98682.95
2018-12-16T03:07:44.393Z,98680.09
2018-12-16T03:10:13.096Z,98644.33
2018-12-16T03:12:41.796Z,98677.39
2018-12-16T03:15:10.393Z,98665.59
2018-12-16T03:17:39.084Z,98664.84
2018-12-16T03:20:07.695Z,98657.92
2018-12-16T03:22:36.235Z,98668.03
2018-12-16T03:25:05.276Z,98674.41
2018-12-16T03:27:33.882Z,98671.05
2018-12-16T03:30:02.443Z,98670.70
2018-12-16T03:32:31.092Z,98670.09
2018-12-16T03:34:59.776Z,98659.92
2018-12-16T03:37:28.380Z,98664.47
2018-12-16T03:39:56.959Z,98659.30
2018-12-16T03:42:26.709Z,98663.17
2018-12-16T03:44:55.320Z,98659.02
2018-12-16T03:47:23.994Z,98659.36
2018-12-16T03:49:52.563Z,98666.37
2018-12-16T03:52:21.311Z,98663.48
2018-12-16T03:54:49.916Z,98659.61
2018-12-16T03:57:18.506Z,98665.34
2018-12-16T03:59:47.269Z,98662.58
2018-12-16T04:02:15.944Z,98659.56
2018-12-16T04:04:44.689Z,98658.00
2018-12-16T04:07:13.218Z,98649.28
2018-12-16T04:09:41.938Z,98651.52
2018-12-16T04:12:10.579Z,98638.33
2018-12-16T04:14:39.344Z,98628.40
2018-12-16T04:17:07.907Z,98626.98
2018-12-16T04:19:36.556Z,98624.56
2018-12-16T04:22:05.165Z,98626.72
2018-12-16T04:24:33.717Z,98633.72
2018-12-16T04:27:02.277Z,98636.67
2018-12-16T04:29:30.851Z,98634.55
2018-12-16T04:31:59.687Z,98640.77
2018-12-16T04:34:28.304Z,98640.88
2018-12-16T04:36:56.899Z,98643.22
2018-12-16T04:39:25.399Z,98638.73
2018-12-16T04:41:54.440Z,98638.50
2018-12-16T04:44:22.951Z,98640.12
2018-12-16T04:46:51.483Z,98636.98
2018-12-16T04:49:20.655Z,98634.39
2018-12-16T04:51:49.264Z,98642.96
2018-12-16T04:54:17.843Z,98650.16
2018-12-16T04:56:46.897Z,98646.30
2018-12-16T04:59:15.372Z,98658.45
2018-12-16T05:01:43.933Z,98662.13
2018-12-16T05:04:12.561Z,98655.62
2018-12-16T05:06:41.644Z,98648.96
2018-12-16T05:09:10.131Z,98646.16
2018-12-16T05:11:38.658Z,98635.84
2018-12-16T05:14:07.251Z,98630.70
2018-12-16T05:16:35.838Z,98633.08
2018-12-16T05:19:04.291Z,98620.04
2018-12-16T05:21:32.793Z,98628.30
2018-12-16T05:24:01.617Z,98623.16
2018-12-16T05:26:30.157Z,98632.16
2018-12-16T05:28:58.783Z,98632.83
2018-12-16T05:31:27.361Z,98635.13
2018-12-16T05:33:55.941Z,98628.25
2018-12-16T05:36:24.529Z,98630.73
2018-12-16T05:38:53.090Z,98628.19
2018-12-16T05:41:22.493Z,98636.47
2018-12-16T05:43:51.602Z,98638.92
2018-12-16T05:46:20.638Z,98641.82
2018-12-16T05:48:50.949Z,98629.14
2018-12-16T05:51:19.570Z,98629.67
2018-12-16T05:53:48.785Z,98615.98
2018-12-16T05:56:17.449Z,98604.64
2018-12-16T05:58:47.803Z,98606.05
2018-12-16T06:01:16.341Z,98611.48
2018-12-16T06:03:45.429Z,98593.92
2018-12-16T06:06:13.954Z,98606.34
2018-12-16T06:08:42.465Z,98605.00
2018-12-16T06:11:11.723Z,98610.68
2018-12-16T06:13:40.255Z,98614.60
2018-12-16T06:16:09.637Z,98498.38
2018-12-16T06:18:38.374Z,98614.87
2018-12-16T06:21:06.870Z,98612.92
2018-12-16T06:23:35.842Z,98619.52
2018-12-16T06:26:04.325Z,98611.11
2018-12-16T06:28:32.903Z,98621.37
2018-12-16T06:31:02.171Z,98623.28
2018-12-16T06:33:30.676Z,98629.14
2018-12-16T06:35:59.291Z,98619.12
2018-12-16T06:38:28.764Z,98624.04
2018-12-16T06:40:57.273Z,98623.99
2018-12-16T06:43:25.749Z,98642.52
2018-12-16T06:45:54.350Z,98643.89
2018-12-16T06:48:23.001Z,98636.97
2018-12-16T06:50:51.705Z,98634.57
2018-12-16T06:53:20.233Z,98625.84
2018-12-16T06:55:48.792Z,98617.88
2018-12-16T06:58:17.275Z,98627.25
2018-12-16T07:00:46.286Z,98628.20
2018-12-16T07:03:14.862Z,98630.98
2018-12-16T07:05:44.035Z,98641.47
2018-12-16T07:08:12.590Z,98633.89
2018-12-16T07:10:42.178Z,98636.20
2018-12-16T07:13:10.734Z,98639.08
2018-12-16T07:15:40.386Z,98645.58
2018-12-16T07:18:09.605Z,98642.52
2018-12-16T07:20:38.131Z,98641.78
2018-12-16T07:23:07.140Z,98614.58
2018-12-16T07:25:36.332Z,98649.00
2018-12-16T07:28:04.896Z,98654.05
2018-12-16T07:30:33.774Z,98651.23
2018-12-16T07:33:03.064Z,98659.91
2018-12-16T07:35:31.621Z,98662.92
2018-12-16T07:38:00.448Z,98515.13
2018-12-16T07:40:30.865Z,98678.55
2018-12-16T07:43:01.827Z,98674.50
2018-12-16T07:45:30.344Z,98679.89
2018-12-16T07:47:59.703Z,98677.77
2018-12-16T07:50:28.341Z,98676.09
2018-12-16T07:52:57.125Z,98675.09
2018-12-16T07:55:25.799Z,98683.16
2018-12-16T07:57:55.108Z,98684.34
2018-12-16T08:00:24.423Z,98685.57
2018-12-16T08:02:53.674Z,98683.44
2018-12-16T08:05:23.201Z,98692.13
2018-12-16T08:07:51.705Z,98697.61
2018-12-16T08:10:20.345Z,98692.42
2018-12-16T08:12:48.884Z,98701.09
2018-12-16T08:15:17.405Z,98700.69
2018-12-16T08:17:45.955Z,98705.90
2018-12-16T08:20:14.476Z,98704.95
2018-12-16T08:22:42.977Z,98700.53
2018-12-16T08:25:12.664Z,98702.78
2018-12-16T08:27:41.555Z,98710.48
2018-12-16T08:30:10.102Z,98708.99
2018-12-16T08:32:38.607Z,98706.73
2018-12-16T08:35:07.139Z,98716.42
2018-12-16T08:37:35.617Z,98708.71
2018-12-16T08:40:04.231Z,98716.34
2018-12-16T08:42:32.886Z,98708.89
2018-12-16T08:45:03.705Z,98713.69
2018-12-16T08:47:33.361Z,98711.23
2018-12-16T08:50:02.210Z,98714.91
2018-12-16T08:52:30.715Z,98711.44
2018-12-16T08:54:59.441Z,98713.55
2018-12-16T08:57:27.923Z,98710.61
2018-12-16T08:59:57.340Z,98713.32
2018-12-16T09:02:25.789Z,98717.77
2018-12-16T09:04:54.439Z,98722.59
2018-12-16T09:07:23.006Z,98714.20
2018-12-16T09:09:53.958Z,98715.59
2018-12-16T09:12:23.903Z,98719.05
2018-12-16T09:14:53.399Z,98714.84
2018-12-16T09:17:22.104Z,98724.46
2018-12-16T09:19:50.876Z,98725.69
2018-12-16T09:22:19.604Z,98720.59
2018-12-16T09:24:48.881Z,98724.19
2018-12-16T09:27:17.527Z,98723.53
2018-12-16T09:29:46.090Z,98730.89
2018-12-16T09:32:14.630Z,98736.52
2018-12-16T09:34:44.108Z,98741.88
2018-12-16T09:37:12.680Z,98744.39
2018-12-16T09:39:42.787Z,98739.70
2018-12-16T09:42:11.550Z,98746.05
2018-12-16T09:44:41.154Z,98740.19
2018-12-16T09:47:09.890Z,98746.14
2018-12-16T09:49:40.036Z,98756.06
2018-12-16T09:52:08.912Z,98748.59
2018-12-16T09:54:44.050Z,98753.38
2018-12-16T09:57:08.416Z,98749.13
2018-12-16T09:59:36.886Z,98742.16
2018-12-16T10:02:07.472Z,98746.59
2018-12-16T10:04:36.037Z,98763.34
2018-12-16T10:07:04.828Z,98762.86
2018-12-16T10:09:33.550Z,98765.56
2018-12-16T10:12:02.240Z,98768.66
2018-12-16T10:14:31.784Z,98765.61
2018-12-16T10:17:00.578Z,98764.56
2018-12-16T10:19:29.204Z,98765.60
2018-12-16T10:21:57.798Z,98762.98
2018-12-16T10:24:27.523Z,98761.66
2018-12-16T10:26:56.268Z,98765.17
2018-12-16T10:29:24.900Z,98756.97
2018-12-16T10:31:55.155Z,98753.70
2018-12-16T10:34:23.899Z,98750.46
2018-12-16T10:36:54.481Z,98760.10
2018-12-16T10:39:23.623Z,98763.24
2018-12-16T10:41:52.337Z,98754.40
2018-12-16T10:44:21.629Z,98763.86
2018-12-16T10:46:50.170Z,98758.85
2018-12-16T10:49:19.993Z,98747.29
2018-12-16T10:51:48.699Z,98752.49
2018-12-16T10:54:18.134Z,98748.02
2018-12-16T10:56:46.715Z,98750.27
2018-12-16T10:59:15.422Z,98753.47
2018-12-16T11:01:44.088Z,98742.21
2018-12-16T11:04:12.830Z,98739.20
2018-12-16T11:06:41.779Z,98741.86
2018-12-16T11:09:10.939Z,98737.29
2018-12-16T11:11:40.472Z,98738.95
2018-12-16T11:14:08.969Z,98728.26
2018-12-16T11:16:37.494Z,98725.69
2018-12-16T11:19:05.945Z,98720.21
2018-12-16T11:21:35.406Z,98728.03
2018-12-16T11:24:04.756Z,98725.48
2018-12-16T11:26:33.513Z,98719.75
2018-12-16T11:29:03.439Z,98719.02
2018-12-16T11:31:33.262Z,98713.16
2018-12-16T11:34:02.507Z,98712.01
2018-12-16T11:39:10.108Z,98708.83
2018-12-16T11:41:38.644Z,98712.15
2018-12-16T11:44:07.223Z,98707.43
2018-12-16T11:46:35.734Z,98698.66
2018-12-16T11:49:04.287Z,98686.45
2018-12-16T11:51:32.723Z,98686.08
2018-12-16T11:54:01.393Z,98685.41
2018-12-16T11:56:30.982Z,98690.48
2018-12-16T11:59:00.214Z,98695.06
2018-12-16T12:01:29.400Z,98706.27
2018-12-16T12:03:57.872Z,98705.80
2018-12-16T12:06:27.051Z,98694.48
2018-12-16T12:08:55.561Z,98682.84
2018-12-16T12:11:24.009Z,98686.72
2018-12-16T12:13:53.165Z,98686.59
2018-12-16T12:16:21.783Z,98687.41
2018-12-16T12:19:01.188Z,98691.63
2018-12-16T12:21:30.316Z,98686.31
2018-12-16T12:23:59.776Z,98682.57
2018-12-16T12:26:29.203Z,98694.48
2018-12-16T12:28:58.030Z,98692.88
2018-12-16T12:31:26.818Z,98685.92
2018-12-16T12:33:55.651Z,98686.22
2018-12-16T12:36:24.242Z,98681.88
2018-12-16T12:38:52.918Z,98678.59
2018-12-16T12:41:21.598Z,98683.77
2018-12-16T12:43:50.332Z,98690.73
2018-12-16T12:46:19.569Z,98685.53
2018-12-16T12:48:48.053Z,98688.39
2018-12-16T12:51:16.493Z,98682.47
2018-12-16T12:53:44.977Z,98680.13
2018-12-16T12:56:14.545Z,98681.78
2018-12-16T12:58:45.510Z,98676.62
2018-12-16T13:01:14.079Z,98679.98
2018-12-16T13:03:43.530Z,98682.08
2018-12-16T13:08:52.405Z,98681.74
2018-12-16T13:11:21.564Z,98685.23
2018-12-16T13:13:50.044Z,98686.73
2018-12-16T13:16:19.057Z,98686.72
2018-12-16T13:18:48.462Z,98690.52
2018-12-16T13:21:17.504Z,98695.55
2018-12-16T13:23:46.013Z,98703.63
2018-12-16T13:26:14.574Z,98704.78
2018-12-16T13:28:42.997Z,98710.72
2018-12-16T13:31:12.227Z,97920.41
2018-12-16T13:33:41.172Z,98713.84
2018-12-16T13:36:11.034Z,98715.61
2018-12-16T13:38:39.526Z,98716.86
2018-12-16T13:41:08.155Z,98722.03
2018-12-16T13:43:36.919Z,98667.21
2018-12-16T13:46:05.401Z,98705.42
2018-12-16T13:48:33.877Z,98713.92
2018-12-16T13:51:02.349Z,98714.78
2018-12-16T13:53:30.806Z,98706.39
2018-12-16T13:55:59.241Z,98707.11
2018-12-16T13:58:27.709Z,98708.88
2018-12-16T14:00:56.231Z,98703.27
2018-12-16T14:03:24.719Z,98708.52
2018-12-16T14:05:53.169Z,98713.90
2018-12-16T14:08:22.632Z,98715.66
2018-12-16T14:10:51.054Z,98718.73
2018-12-16T14:13:19.752Z,98728.09
2018-12-16T14:15:52.347Z,98725.65
2018-12-16T14:18:18.873Z,98721.00
2018-12-16T14:20:47.382Z,98714.62
2018-12-16T14:23:16.145Z,98707.38
2018-12-16T14:25:47.967Z,98702.63
2018-12-16T14:28:17.350Z,98711.68
2018-12-16T14:30:45.806Z,98702.77
2018-12-16T14:33:14.314Z,98702.23
2018-12-16T14:35:42.795Z,98698.70
2018-12-16T14:38:11.323Z,98705.62
2018-12-16T14:40:39.857Z,98710.14
2018-12-16T14:43:08.368Z,98714.11
2018-12-16T14:45:36.915Z,98718.67
2018-12-16T14:48:05.419Z,98707.55
2018-12-16T14:50:33.937Z,98705.15
2018-12-16T14:53:02.477Z,98706.24
2018-12-16T14:55:30.910Z,98705.22
2018-12-16T14:57:59.327Z,98711.76
2018-12-16T15:00:27.813Z,98714.25
2018-12-16T15:02:56.285Z,98719.89
2018-12-16T15:05:24.841Z,98721.53
2018-12-16T15:08:12.563Z,98721.20
2018-12-16T15:10:41.300Z,98715.05
2018-12-16T15:13:09.874Z,98718.05
2018-12-16T15:15:39.091Z,98716.66
2018-12-16T15:18:07.651Z,98713.90
2018-12-16T15:20:36.178Z,98717.64
2018-12-16T15:23:04.744Z,98720.09
2018-12-16T15:25:33.190Z,98724.47
2018-12-16T15:28:02.248Z,98726.63
2018-12-16T15:30:30.712Z,98716.27
2018-12-16T15:32:59.193Z,98716.55
2018-12-16T15:35:27.678Z,98713.76
2018-12-16T15:37:56.108Z,98717.73
2018-12-16T15:40:24.661Z,98715.05
2018-12-16T15:42:53.135Z,98725.27
2018-12-16T15:45:21.647Z,98726.05
2018-12-16T15:47:51.836Z,98731.02
2018-12-16T15:50:20.345Z,98726.94
2018-12-16T15:52:48.846Z,98736.05
2018-12-16T15:55:18.090Z,98731.38
2018-12-16T15:57:46.711Z,98734.04
2018-12-16T16:00:15.259Z,98729.20
2018-12-16T16:02:43.785Z,98732.60
2018-12-16T16:05:12.620Z,98736.48
2018-12-16T16:07:42.123Z,98745.44
2018-12-16T16:10:10.628Z,98745.16
2018-12-16T16:12:39.917Z,98753.21
2018-12-16T16:15:08.786Z,98760.86
2018-12-16T16:17:38.694Z,98760.22
2018-12-16T16:20:07.409Z,98754.03
2018-12-16T16:22:35.899Z,98755.52
2018-12-16T16:25:05.867Z,98753.58
2018-12-16T16:27:34.359Z,98763.42
2018-12-16T16:30:03.266Z,98762.94
2018-12-16T16:32:32.117Z,98769.03
2018-12-16T16:35:01.157Z,98767.27
2018-12-16T16:37:30.470Z,98773.75
2018-12-16T16:39:59.127Z,98777.80
2018-12-16T16:42:27.691Z,98775.61
2018-12-16T16:44:58.359Z,98786.58
2018-12-16T16:47:26.851Z,98791.06
2018-12-16T16:49:56.015Z,98790.67
2018-12-16T16:52:24.569Z,98791.59
2018-12-16T16:54:53.432Z,98788.97
2018-12-16T16:57:21.915Z,98790.92
2018-12-16T16:59:50.368Z,98797.20
2018-12-16T17:02:18.846Z,98793.94
2018-12-16T17:04:48.050Z,98797.11
2018-12-16T17:07:16.542Z,98803.45
2018-12-16T17:09:47.262Z,98797.47
2018-12-16T17:12:16.204Z,98798.60
2018-12-16T17:14:44.775Z,98801.62
2018-12-16T17:17:13.783Z,98806.03
2018-12-16T17:19:43.324Z,98804.33
2018-12-16T17:22:12.249Z,98803.84
2018-12-16T17:24:41.393Z,98811.25
2018-12-16T17:27:10.637Z,98813.66
2018-12-16T17:29:39.278Z,98819.20
2018-12-16T17:32:07.799Z,98822.38
2018-12-16T17:34:36.349Z,98828.13
2018-12-16T17:37:05.596Z,98825.16
2018-12-16T17:39:34.169Z,98823.58
2018-12-16T17:42:02.765Z,98828.60
2018-12-16T17:44:31.321Z,98829.27
2018-12-16T17:47:00.108Z,98834.01
2018-12-16T17:49:29.450Z,98833.22
2018-12-16T17:51:57.946Z,98838.09
2018-12-16T17:54:26.809Z,98835.25
2018-12-16T17:56:56.141Z,98836.83
2018-12-16T17:59:24.689Z,98833.06
2018-12-16T18:01:53.489Z,98840.84
2018-12-16T18:04:23.388Z,98841.72
2018-12-16T18:06:51.962Z,98845.11
2018-12-16T18:09:20.662Z,98850.90
2018-12-16T18:11:49.173Z,98849.89
2018-12-16T18:14:17.878Z,98845.67
2018-12-16T18:16:46.441Z,98850.55
2018-12-16T18:19:15.165Z,98847.84
2018-12-16T18:21:43.682Z,98861.33
2018-12-16T18:24:12.877Z,98865.64
2018-12-16T18:26:44.272Z,98866.02
2018-12-16T18:29:12.054Z,98864.70
2018-12-16T18:31:40.600Z,98868.91
2018-12-16T18:34:09.255Z,98867.41
2018-12-16T18:36:37.820Z,98866.29
2018-12-16T18:39:08.968Z,98869.58
2018-12-16T18:41:37.623Z,98879.48
2018-12-16T18:44:06.352Z,98875.77
2018-12-16T18:46:34.909Z,98880.71
2018-12-16T18:49:03.640Z,98880.25
2018-12-16T18:51:32.264Z,98883.52
2018-12-16T18:54:00.931Z,98883.40
2018-12-16T18:56:29.697Z,98881.56
2018-12-16T18:58:58.311Z,98882.02
2018-12-16T19:01:26.872Z,98880.36
2018-12-16T19:03:56.297Z,98886.34
2018-12-16T19:06:24.939Z,98890.85
2018-12-16T19:08:53.576Z,98891.30
2018-12-16T19:11:22.240Z,98885.31
2018-12-16T19:13:51.222Z,98889.72
2018-12-16T19:16:22.527Z,98885.52
2018-12-16T19:18:51.384Z,98888.49
2018-12-16T19:21:23.559Z,98885.41
2018-12-16T19:23:53.404Z,98887.00
2018-12-16T19:26:22.522Z,98881.40
2018-12-16T19:28:51.116Z,98881.28
2018-12-16T19:31:19.668Z,98881.92
2018-12-16T19:33:48.330Z,98882.11
2018-12-16T19:36:17.080Z,98883.05
2018-12-16T19:38:45.626Z,98884.00
2018-12-16T19:41:14.206Z,98882.11
2018-12-16T19:43:42.837Z,98881.09
2018-12-16T19:46:11.419Z,98884.45
2018-12-16T19:48:39.971Z,98877.35
2018-12-16T19:51:08.570Z,98877.08
2018-12-16T19:53:37.194Z,98874.82
2018-12-16T19:56:05.831Z,98874.55
2018-12-16T19:58:34.681Z,98868.77
2018-12-16T20:01:04.341Z,98871.37
2018-12-16T20:03:41.700Z,98864.64
2018-12-16T20:06:15.668Z,98869.88
2018-12-16T20:08:44.276Z,98881.67
2018-12-16T20:11:15.609Z,98876.52
2018-12-16T20:13:45.502Z,98886.08
2018-12-16T20:16:15.127Z,98887.41
2018-12-16T20:18:43.623Z,98886.94
2018-12-16T20:21:12.189Z,98885.23
2018-12-16T20:23:40.872Z,98886.34
2018-12-16T20:26:09.463Z,98889.82
2018-12-16T20:28:38.194Z,98884.38
2018-12-16T20:31:07.899Z,98886.83
2018-12-16T20:33:36.555Z,98892.81
2018-12-16T20:36:05.388Z,98896.67
2018-12-16T20:38:33.953Z,98899.55
2018-12-16T20:41:02.721Z,98897.40
2018-12-16T20:43:31.243Z,98899.28
2018-12-16T20:46:00.719Z,98903.39
2018-12-16T20:48:29.253Z,98899.67
2018-12-16T20:50:57.874Z,98901.98
2018-12-16T20:53:26.421Z,98906.97
2018-12-16T20:55:55.009Z,98898.91
2018-12-16T20:58:23.577Z,98900.98
2018-12-16T21:00:52.234Z,98899.36
2018-12-16T21:03:20.721Z,98899.86
2018-12-16T21:05:49.230Z,98896.42
2018-12-16T21:08:17.775Z,98894.19
2018-12-16T21:10:46.393Z,98889.98
2018-12-16T21:13:20.003Z,98893.09
2018-12-16T21:15:53.841Z,98895.70
2018-12-16T21:18:25.849Z,98896.83
2018-12-16T21:20:54.368Z,98894.11
2018-12-16T21:23:23.906Z,98894.66
2018-12-16T21:25:53.906Z,98902.25
2018-12-16T21:28:22.553Z,98901.22
2018-12-16T21:30:51.805Z,98899.08
2018-12-16T21:33:20.335Z,98906.66
2018-12-16T21:35:49.620Z,98907.58
2018-12-16T21:38:18.345Z,98911.70
2018-12-16T21:40:46.931Z,98915.45
2018-12-16T21:43:15.502Z,98915.38
2018-12-16T21:45:44.188Z,98910.01
2018-12-16T21:48:12.848Z,98910.60
2018-12-16T21:50:42.392Z,98919.57
2018-12-16T21:53:10.885Z,98914.91
2018-12-16T21:55:39.402Z,98916.41
2018-12-16T21:58:08.649Z,98924.66
2018-12-16T22:00:37.617Z,98926.59
2018-12-16T22:03:06.189Z,98916.95
2018-12-16T22:05:36.021Z,98928.09
2018-12-16T22:08:05.213Z,98924.63
2018-12-16T22:10:35.054Z,98922.73
2018-12-16T22:13:04.274Z,98927.34
2018-12-16T22:15:33.601Z,98933.34
2018-12-16T22:18:02.121Z,98940.47
2018-12-16T22:20:30.598Z,98947.58
2018-12-16T22:23:08.027Z,98947.38
2018-12-16T22:25:38.134Z,98943.47
2018-12-16T22:28:07.202Z,98943.75
2018-12-16T22:30:35.817Z,98948.43
2018-12-16T22:33:05.000Z,98946.36
2018-12-16T22:35:33.574Z,98949.44
2018-12-16T22:38:02.236Z,98947.76
2018-12-16T22:40:31.061Z,98948.13
2018-12-16T22:42:59.742Z,98951.59
2018-12-16T22:45:28.350Z,98951.88
2018-12-16T22:47:56.785Z,98956.09
2018-12-16T22:50:25.864Z,98956.85
2018-12-16T22:52:54.399Z,98960.58
2018-12-16T22:55:22.955Z,98956.11
2018-12-16T22:57:51.614Z,98956.92
2018-12-16T23:00:20.197Z,98959.83
2018-12-16T23:02:48.732Z,98957.78
2018-12-16T23:05:17.457Z,98960.02
2018-12-16T23:07:46.032Z,98955.91
2018-12-16T23:10:14.765Z,98946.08
2018-12-16T23:12:44.610Z,98949.18
2018-12-16T23:15:13.866Z,98951.79
2018-12-16T23:17:43.150Z,98952.16
2018-12-16T23:20:17.186Z,98952.52
2018-12-16T23:22:45.876Z,98951.69
2018-12-16T23:25:14.878Z,98953.67
2018-12-16T23:27:43.761Z,98951.78
2018-12-16T23:30:12.637Z,98954.20
2018-12-16T23:32:41.312Z,98956.95
2018-12-16T23:35:10.588Z,98953.73
2018-12-16T23:37:39.256Z,98945.97
2018-12-16T23:40:07.854Z,98953.38
2018-12-16T23:42:36.609Z,98945.97
2018-12-16T23:45:06.172Z,98947.28
2018-12-16T23:47:35.280Z,98945.53
2018-12-16T23:50:04.660Z,98953.85
2018-12-16T23:52:33.362Z,98944.67
2018-12-16T23:55:01.894Z,98944.41
2018-12-16T23:57:30.410Z,98947.93
2018-12-16T23:59:59.812Z,98937.44
